Peotone Weather
Station Historical Data
 
Daily Summary for June 21, 2018 Units:  English    Metric   Both
« Previous Day
Next Day »
Daily Weekly Monthly Yearly Custom
  Current: High: Low: Average:
Temperature: 67.5 °F 67.5 °F 65.3 °F 66.1 °F
Dew Point: 65.4 °F 65.5 °F 63.0 °F 63.9 °F
Humidity: 93% 94% 91% 93%
Wind Speed: 3.4mph 10.3mph 0.0mph 3.5mph
Wind Gust: 8.1mph 14.9mph - -
WindEast - - ESE
Pressure: 29.76 in 29.84 in 29.74 in -
Precipitation: 0.89 in      
Historical Graphs
 
 
Tabular Data for June 21, 2018
Time Temperature Dew Point Pressure Wind Wind Speed Wind Gust Humidity Rainfall Rate (Hourly) solar Conditions
00:00 66.2 °F 63.5 °F 29.83 in NNW 5.8 mph 5.8 mph 91% 0.12 in 0.00 W/m2
00:04 66.3 °F 63.6 °F 29.83 in WNW 2.3 mph 6.9 mph 91% 0.20 in 0.00 W/m2
00:05 66.2 °F 63.5 °F 29.83 in NW 2.3 mph 6.9 mph 91% 0.22 in 0.00 W/m2
00:09 66.1 °F 63.4 °F 29.83 in NNW 1.1 mph 6.9 mph 91% 0.25 in 0.00 W/m2
00:10 66.0 °F 63.3 °F 29.83 in Calm   6.9 mph 91% 0.26 in 0.00 W/m2
00:14 66.1 °F 63.7 °F 29.83 in NW 4.6 mph 9.2 mph 92% 0.31 in 0.00 W/m2
00:15 66.0 °F 63.6 °F 29.83 in NW 4.6 mph 9.2 mph 92% 0.33 in 0.00 W/m2
00:19 65.9 °F 63.5 °F 29.84 in WNW 4.6 mph 6.9 mph 92% 0.44 in 0.00 W/m2
00:20 65.8 °F 63.4 °F 29.84 in WNW 5.8 mph 8.1 mph 92% 0.49 in 0.00 W/m2
00:24 65.8 °F 63.4 °F 29.83 in NNW 4.6 mph 8.1 mph 92% 0.59 in 0.00 W/m2
00:25 65.8 °F 63.4 °F 29.83 in NNW 5.8 mph 8.1 mph 92% 0.63 in 0.00 W/m2
00:29 65.6 °F 63.2 °F 29.83 in NNW 3.4 mph 6.9 mph 92% 0.75 in 0.00 W/m2
00:30 65.6 °F 63.2 °F 29.83 in NNW 3.5 mph 6.9 mph 92% 0.77 in 0.00 W/m2
00:34 65.6 °F 63.2 °F 29.83 in NNW 4.6 mph 5.8 mph 92% 0.79 in 0.00 W/m2
00:35 65.6 °F 63.2 °F 29.83 in NNW 1.1 mph 5.8 mph 92% 0.79 in 0.00 W/m2
00:39 65.6 °F 63.2 °F 29.83 in Calm   2.3 mph 92% 0.79 in 0.00 W/m2
00:40 65.5 °F 63.1 °F 29.83 in NNW 4.6 mph 4.6 mph 92% 0.80 in 0.00 W/m2
00:44 65.6 °F 63.2 °F 29.83 in NNW 2.3 mph 4.6 mph 92% 0.82 in 0.00 W/m2
00:45 65.6 °F 63.2 °F 29.83 in NNW 2.3 mph 4.6 mph 92% 0.83 in 0.00 W/m2
00:49 65.6 °F 63.2 °F 29.83 in Calm   2.3 mph 92% 0.84 in 0.00 W/m2
00:50 65.6 °F 63.2 °F 29.82 in Calm   2.3 mph 92% 0.84 in 0.00 W/m2
00:54 65.6 °F 63.2 °F 29.82 in Calm     92% 0.84 in 0.00 W/m2
00:55 65.6 °F 63.2 °F 29.82 in Calm     92% 0.85 in 0.00 W/m2
00:59 65.6 °F 63.2 °F 29.81 in NNE 2.3 mph 4.6 mph 92% 0.83 in 0.00 W/m2
01:00 65.6 °F 63.2 °F 29.81 in NNE 1.1 mph 4.6 mph 92% 0.83 in 0.00 W/m2
01:04 65.5 °F 63.1 °F 29.80 in Calm   4.6 mph 92% 0.83 in 0.00 W/m2
01:05 65.5 °F 63.1 °F 29.80 in NNE 1.1 mph 4.6 mph 92% 0.83 in 0.00 W/m2
01:09 65.4 °F 63.0 °F 29.80 in Calm   3.4 mph 92% 0.74 in 0.00 W/m2
01:10 65.4 °F 63.0 °F 29.80 in Calm   3.5 mph 92% 0.74 in 0.00 W/m2
01:14 65.4 °F 63.0 °F 29.80 in NNE 1.1 mph 2.3 mph 92% 0.72 in 0.00 W/m2
01:15 65.4 °F 63.0 °F 29.80 in NNE 3.5 mph 3.5 mph 92% 0.72 in 0.00 W/m2
01:19 65.3 °F 63.2 °F 29.79 in NNE 3.4 mph 4.6 mph 93% 0.66 in 0.00 W/m2
01:20 65.4 °F 63.3 °F 29.79 in NNE 3.5 mph 4.6 mph 93% 0.66 in 0.00 W/m2
01:24 65.4 °F 63.3 °F 29.78 in NNE 1.1 mph 3.4 mph 93% 0.51 in 0.00 W/m2
01:25 65.4 °F 63.3 °F 29.78 in NNE 3.5 mph 4.6 mph 93% 0.51 in 0.00 W/m2
01:29 65.4 °F 63.3 °F 29.78 in NNE 4.6 mph 5.8 mph 93% 0.36 in 0.00 W/m2
01:30 65.4 °F 63.3 °F 29.78 in NE 1.1 mph 5.8 mph 93% 0.36 in 0.00 W/m2
01:34 65.4 °F 63.3 °F 29.78 in NNE 2.3 mph 5.8 mph 93% 0.23 in 0.00 W/m2
01:35 65.5 °F 63.4 °F 29.78 in Calm   5.8 mph 93% 0.23 in 0.00 W/m2
01:39 65.5 °F 63.4 °F 29.77 in ENE 8.1 mph 9.2 mph 93% 0.20 in 0.00 W/m2
01:40 65.5 °F 63.4 °F 29.77 in ENE 2.3 mph 9.2 mph 93% 0.20 in 0.00 W/m2
01:44 65.6 °F 63.5 °F 29.77 in ENE 3.4 mph 8.1 mph 93% 0.18 in 0.00 W/m2
01:45 65.5 °F 63.4 °F 29.77 in NNE 4.6 mph 8.1 mph 93% 0.18 in 0.00 W/m2
01:49 65.6 °F 63.5 °F 29.77 in Calm   5.8 mph 93% 0.15 in 0.00 W/m2
01:50 65.6 °F 63.5 °F 29.77 in NNE 3.5 mph 5.8 mph 93% 0.15 in 0.00 W/m2
01:54 65.6 °F 63.5 °F 29.77 in NE 2.3 mph 6.9 mph 93% 0.13 in 0.00 W/m2
01:55 65.6 °F 63.5 °F 29.77 in Calm   6.9 mph 93% 0.13 in 0.00 W/m2
01:59 65.7 °F 63.6 °F 29.77 in ENE 5.8 mph 9.2 mph 93% 0.10 in 0.00 W/m2
02:00 65.6 °F 63.5 °F 29.77 in NE 5.8 mph 9.2 mph 93% 0.10 in 0.00 W/m2
02:04 65.7 °F 63.6 °F 29.76 in NE 3.4 mph 11.5 mph 93% 0.08 in 0.00 W/m2
02:05 65.7 °F 63.6 °F 29.76 in ENE 2.3 mph 11.5 mph 93% 0.08 in 0.00 W/m2
02:09 65.7 °F 63.6 °F 29.76 in ENE 5.8 mph 14.9 mph 93% 0.06 in 0.00 W/m2
02:10 65.7 °F 63.6 °F 29.76 in ENE 5.8 mph 14.9 mph 93% 0.06 in 0.00 W/m2
02:14 65.8 °F 63.7 °F 29.76 in ENE 2.3 mph 8.1 mph 93% 0.05 in 0.00 W/m2
02:15 65.8 °F 63.7 °F 29.76 in ENE 2.3 mph 8.1 mph 93% 0.05 in 0.00 W/m2
02:19 65.8 °F 63.7 °F 29.76 in NE 3.4 mph 9.2 mph 93% 0.03 in 0.00 W/m2
02:20 65.8 °F 63.7 °F 29.76 in ENE 9.2 mph 9.2 mph 93% 0.03 in 0.00 W/m2
02:24 65.9 °F 63.8 °F 29.76 in NE 3.4 mph 9.2 mph 93% 0.02 in 0.00 W/m2
02:25 65.9 °F 63.8 °F 29.76 in ENE 1.1 mph 9.2 mph 93% 0.02 in 0.00 W/m2
02:29 65.9 °F 63.8 °F 29.76 in East 6.9 mph 10.3 mph 93% 0.01 in 0.00 W/m2
02:30 65.9 °F 63.8 °F 29.77 in East 2.3 mph 10.4 mph 93% 0.01 in 0.00 W/m2
02:34 66.0 °F 63.9 °F 29.77 in ENE 8.1 mph 11.5 mph 93% 0.01 in 0.00 W/m2
02:35 66.1 °F 64.0 °F 29.77 in ENE 4.6 mph 11.5 mph 93% 0.01 in 0.00 W/m2
02:39 66.1 °F 64.0 °F 29.76 in ENE 4.6 mph 9.2 mph 93% 0.00 in 0.00 W/m2
02:44 66.1 °F 64.0 °F 29.76 in NE 5.8 mph 5.8 mph 93% 0.00 in 0.00 W/m2
02:49 66.1 °F 64.0 °F 29.76 in East 5.8 mph 5.8 mph 93% 0.00 in 0.00 W/m2
02:54 66.1 °F 64.0 °F 29.76 in ENE 8.1 mph 9.2 mph 93% 0.00 in 0.00 W/m2
02:59 66.2 °F 64.1 °F 29.76 in NE 3.4 mph 10.3 mph 93% 0.00 in 0.00 W/m2
03:04 66.2 °F 64.1 °F 29.75 in ENE 3.4 mph 10.3 mph 93% 0.00 in 0.00 W/m2
03:09 66.2 °F 64.1 °F 29.75 in NE 6.9 mph 10.3 mph 93% 0.00 in 0.00 W/m2
03:14 66.2 °F 64.1 °F 29.75 in ENE 5.8 mph 9.2 mph 93% 0.00 in 0.00 W/m2
03:19 66.3 °F 64.2 °F 29.74 in East 10.3 mph 13.8 mph 93% 0.00 in 0.00 W/m2
03:24 66.3 °F 64.2 °F 29.74 in ENE 8.1 mph 10.3 mph 93% 0.00 in 0.00 W/m2
03:29 66.4 °F 64.3 °F 29.74 in NE 3.4 mph 11.5 mph 93% 0.00 in 0.00 W/m2
03:34 66.4 °F 64.3 °F 29.74 in ENE 10.3 mph 10.3 mph 93% 0.00 in 0.00 W/m2
03:39 66.5 °F 64.4 °F 29.74 in ENE 2.3 mph 10.3 mph 93% 0.00 in 0.00 W/m2
03:44 66.6 °F 64.5 °F 29.74 in ENE 2.3 mph 11.5 mph 93% 0.00 in 0.00 W/m2
03:49 66.6 °F 64.5 °F 29.74 in ENE 5.8 mph 10.3 mph 93% 0.00 in 0.00 W/m2
03:54 66.7 °F 64.6 °F 29.74 in ENE 3.4 mph 9.2 mph 93% 0.00 in 0.00 W/m2
03:59 66.7 °F 64.6 °F 29.74 in NE 2.3 mph 8.1 mph 93% 0.00 in 0.00 W/m2
04:04 66.8 °F 64.7 °F 29.74 in ENE 3.4 mph 8.1 mph 93% 0.00 in 0.00 W/m2
04:09 66.8 °F 64.7 °F 29.74 in NE 3.4 mph 5.8 mph 93% 0.00 in 0.00 W/m2
04:14 66.9 °F 64.8 °F 29.74 in NE 1.1 mph 6.9 mph 93% 0.00 in 0.00 W/m2
04:19 67.0 °F 64.9 °F 29.74 in ENE 3.4 mph 5.8 mph 93% 0.00 in 0.00 W/m2
04:24 67.0 °F 64.9 °F 29.74 in ENE 5.8 mph 8.1 mph 93% 0.00 in 0.00 W/m2
04:29 67.1 °F 65.0 °F 29.74 in ENE 5.8 mph 5.8 mph 93% 0.00 in 0.00 W/m2
04:34 67.2 °F 65.1 °F 29.74 in ENE 5.8 mph 8.1 mph 93% 0.00 in 0.00 W/m2
04:39 67.2 °F 65.1 °F 29.74 in ENE 3.4 mph 5.8 mph 93% 0.00 in 0.00 W/m2
04:44 67.2 °F 65.1 °F 29.74 in NNE 3.4 mph 9.2 mph 93% 0.00 in 0.00 W/m2
04:49 67.2 °F 65.1 °F 29.74 in Calm   3.4 mph 93% 0.00 in 0.00 W/m2
04:54 67.3 °F 65.5 °F 29.74 in ENE 3.4 mph 5.8 mph 94% 0.00 in 0.00 W/m2
04:59 67.3 °F 65.2 °F 29.75 in ENE 3.4 mph 5.8 mph 93% 0.00 in 0.00 W/m2
05:04 67.4 °F 65.3 °F 29.75 in ENE 3.4 mph 8.1 mph 93% 0.00 in 0.00 W/m2
05:09 67.4 °F 65.3 °F 29.75 in NE 2.3 mph 8.1 mph 93% 0.00 in 0.00 W/m2
05:14 67.4 °F 65.3 °F 29.75 in ENE 1.1 mph 5.8 mph 93% 0.00 in 0.00 W/m2
05:19 67.5 °F 65.4 °F 29.75 in ENE 1.1 mph 5.8 mph 93% 0.00 in 0.00 W/m2
05:24 67.5 °F 65.4 °F 29.75 in ENE 5.8 mph 9.2 mph 93% 0.00 in 0.00 W/m2
05:29 67.5 °F 65.4 °F 29.76 in East 3.4 mph 8.1 mph 93% 0.00 in 0.00 W/m2
Juneau County Weather
Compliments of Weather Underground - 2 mb